RYR1638 EGNX-EDDB
Flight info
| Callsign | RYR1638 |
|---|---|
| Flight time | N/A |
| Altitude | 39000 |
| Route | TNT M868 ADELU L60 MAMUL L603 LAMSO DCT EVELI DCT PAM L620 SONEB DCT BATEL T207 OGBER OGBER1R |
| Aircraft | B738/M-SDE2E3FGHIRWXY/LB1 |
Departure
| Time | 2026-04-30 21:43 |
|---|---|
| Airport | East Midlands Airport (EGNX) |
Arrival
| Time | N/A |
|---|---|
| Airport | Berlin Brandenburg Airport (EDDB) |
| Time | Latitude | Longitude | Altitude | Speed | Heading |
|---|---|---|---|---|---|
| 2026-04-30 21:27 | 52.82724 | -1.32807 | 302 ft | 0 kts | 180° |
| 2026-04-30 21:38 | 52.82722 | -1.32808 | 302 ft | 1 kts | 190° |
| 2026-04-30 21:38 | 52.82719 | -1.32820 | 304 ft | 2 kts | 251° |
| 2026-04-30 21:38 | 52.82729 | -1.32834 | 302 ft | 2 kts | 340° |
| 2026-04-30 21:39 | 52.82757 | -1.32827 | 302 ft | 6 kts | 16° |
| 2026-04-30 21:39 | 52.82807 | -1.32804 | 303 ft | 9 kts | 16° |
| 2026-04-30 21:39 | 52.82874 | -1.32830 | 303 ft | 11 kts | 337° |
| 2026-04-30 21:39 | 52.82929 | -1.32929 | 304 ft | 13 kts | 282° |
| 2026-04-30 21:40 | 52.82925 | -1.33086 | 304 ft | 14 kts | 269° |
| 2026-04-30 21:40 | 52.82923 | -1.33263 | 305 ft | 16 kts | 268° |
| 2026-04-30 21:40 | 52.82919 | -1.33460 | 309 ft | 18 kts | 268° |
| 2026-04-30 21:40 | 52.82916 | -1.33675 | 310 ft | 19 kts | 268° |
| 2026-04-30 21:41 | 52.82911 | -1.33907 | 309 ft | 21 kts | 268° |
| 2026-04-30 21:41 | 52.82905 | -1.34155 | 310 ft | 22 kts | 268° |
| 2026-04-30 21:41 | 52.82907 | -1.34407 | 312 ft | 22 kts | 269° |
| 2026-04-30 21:41 | 52.82904 | -1.34661 | 313 ft | 22 kts | 268° |
| 2026-04-30 21:42 | 52.82902 | -1.34887 | 315 ft | 14 kts | 287° |
| 2026-04-30 21:42 | 52.82988 | -1.34938 | 315 ft | 15 kts | 358° |
| 2026-04-30 21:42 | 52.83062 | -1.34854 | 314 ft | 16 kts | 84° |
| 2026-04-30 21:42 | 52.83070 | -1.34390 | 309 ft | 75 kts | 88° |
| 2026-04-30 21:43 | 52.83093 | -1.33146 | 309 ft | 137 kts | 88° |
| 2026-04-30 21:43 | 52.83137 | -1.31343 | 579 ft | 165 kts | 88° |
| 2026-04-30 21:43 | 52.83172 | -1.29444 | 1386 ft | 165 kts | 97° |
| 2026-04-30 21:43 | 52.83083 | -1.27616 | 2304 ft | 161 kts | 103° |
| 2026-04-30 21:44 | 52.82993 | -1.25681 | 2962 ft | 175 kts | 91° |
| 2026-04-30 21:44 | 52.83469 | -1.23760 | 3611 ft | 197 kts | 57° |
| 2026-04-30 21:44 | 52.84689 | -1.22309 | 3880 ft | 234 kts | 19° |
| 2026-04-30 21:44 | 52.86379 | -1.22340 | 4144 ft | 259 kts | 338° |
| 2026-04-30 21:45 | 52.87835 | -1.24147 | 4488 ft | 276 kts | 300° |
| 2026-04-30 21:45 | 52.88750 | -1.26936 | 5277 ft | 278 kts | 295° |
| 2026-04-30 21:45 | 52.89727 | -1.29737 | 5751 ft | 282 kts | 299° |
| 2026-04-30 21:45 | 52.90799 | -1.32490 | 6165 ft | 286 kts | 301° |
| 2026-04-30 21:46 | 52.91909 | -1.35237 | 6217 ft | 287 kts | 302° |
| 2026-04-30 21:46 | 52.93041 | -1.37969 | 6231 ft | 288 kts | 303° |
| 2026-04-30 21:46 | 52.94179 | -1.40693 | 6234 ft | 287 kts | 302° |
| 2026-04-30 21:46 | 52.95317 | -1.43414 | 6233 ft | 287 kts | 302° |
| 2026-04-30 21:47 | 52.96453 | -1.46136 | 6233 ft | 288 kts | 302° |
| 2026-04-30 21:47 | 52.97592 | -1.48868 | 6235 ft | 288 kts | 303° |
| 2026-04-30 21:47 | 52.98752 | -1.51582 | 6233 ft | 288 kts | 303° |
| 2026-04-30 21:47 | 52.99923 | -1.54278 | 6233 ft | 288 kts | 303° |
| 2026-04-30 21:48 | 53.01098 | -1.56979 | 6240 ft | 288 kts | 303° |
| 2026-04-30 21:48 | 53.02269 | -1.59682 | 6224 ft | 288 kts | 303° |
| 2026-04-30 21:48 | 53.03433 | -1.62374 | 6231 ft | 287 kts | 303° |
| 2026-04-30 21:48 | 53.04599 | -1.65070 | 6228 ft | 287 kts | 305° |
| 2026-04-30 21:49 | 53.06050 | -1.67343 | 6242 ft | 291 kts | 330° |
| 2026-04-30 21:49 | 53.07929 | -1.68635 | 6640 ft | 296 kts | 340° |
| 2026-04-30 21:49 | 53.08652 | -1.69066 | 6940 ft | 297 kts | 340° |
| 2026-04-30 21:49 | 53.10608 | -1.70242 | 7786 ft | 298 kts | 340° |
| 2026-04-30 21:50 | 53.12564 | -1.71437 | 8606 ft | 301 kts | 339° |
| 2026-04-30 21:50 | 53.14541 | -1.72656 | 9372 ft | 305 kts | 339° |
| 2026-04-30 21:50 | 53.16592 | -1.73617 | 10114 ft | 311 kts | 356° |
| 2026-04-30 21:50 | 53.18751 | -1.73303 | 10670 ft | 319 kts | 13° |
| 2026-04-30 21:51 | 53.20991 | -1.72426 | 10855 ft | 343 kts | 16° |
| 2026-04-30 21:51 | 53.23370 | -1.71403 | 11112 ft | 362 kts | 16° |
| 2026-04-30 21:51 | 53.25842 | -1.70351 | 11647 ft | 371 kts | 15° |
| 2026-04-30 21:51 | 53.28323 | -1.69333 | 12364 ft | 373 kts | 15° |
| 2026-04-30 21:52 | 53.30892 | -1.68301 | 13066 ft | 377 kts | 15° |
| 2026-04-30 21:52 | 53.33418 | -1.67232 | 13719 ft | 381 kts | 20° |
| 2026-04-30 21:52 | 53.35865 | -1.65485 | 14355 ft | 383 kts | 31° |
| 2026-04-30 21:52 | 53.38074 | -1.63044 | 15012 ft | 382 kts | 43° |
| 2026-04-30 21:53 | 53.40056 | -1.60091 | 15672 ft | 383 kts | 46° |
| 2026-04-30 21:53 | 53.41963 | -1.56943 | 16289 ft | 383 kts | 56° |
| 2026-04-30 21:53 | 53.43223 | -1.53071 | 16863 ft | 377 kts | 76° |
| 2026-04-30 21:53 | 53.43691 | -1.48795 | 17508 ft | 372 kts | 93° |
| 2026-04-30 21:54 | 53.43442 | -1.44495 | 18131 ft | 371 kts | 102° |
| 2026-04-30 21:54 | 53.43004 | -1.40217 | 18686 ft | 375 kts | 103° |
| 2026-04-30 21:54 | 53.42561 | -1.35900 | 19205 ft | 378 kts | 103° |
| 2026-04-30 21:54 | 53.42135 | -1.31515 | 19745 ft | 381 kts | 102° |
| 2026-04-30 21:55 | 53.41683 | -1.27130 | 20275 ft | 382 kts | 106° |
| 2026-04-30 21:55 | 53.40961 | -1.22832 | 20797 ft | 383 kts | 111° |
| 2026-04-30 21:55 | 53.40153 | -1.18570 | 21320 ft | 386 kts | 111° |
| 2026-04-30 21:55 | 53.39339 | -1.14266 | 21820 ft | 389 kts | 111° |
| 2026-04-30 21:56 | 53.38534 | -1.09968 | 22321 ft | 391 kts | 111° |
| 2026-04-30 21:56 | 53.37719 | -1.05573 | 22808 ft | 394 kts | 111° |
| 2026-04-30 21:56 | 53.36904 | -1.01159 | 23293 ft | 397 kts | 111° |
| 2026-04-30 21:56 | 53.36088 | -0.96732 | 23765 ft | 400 kts | 111° |
| 2026-04-30 21:57 | 53.35275 | -0.92324 | 24168 ft | 402 kts | 111° |
| 2026-04-30 21:57 | 53.34449 | -0.87855 | 24562 ft | 405 kts | 111° |
| 2026-04-30 21:57 | 53.33603 | -0.83285 | 24967 ft | 406 kts | 111° |
| 2026-04-30 21:57 | 53.33045 | -0.80280 | 25229 ft | 408 kts | 111° |
| 2026-04-30 21:58 | 53.32202 | -0.75741 | 25597 ft | 410 kts | 111° |
| 2026-04-30 21:58 | 53.31072 | -0.69692 | 26077 ft | 413 kts | 111° |
| 2026-04-30 21:58 | 53.30493 | -0.66598 | 26329 ft | 415 kts | 111° |
| 2026-04-30 21:58 | 53.29341 | -0.60467 | 26813 ft | 417 kts | 111° |
| 2026-04-30 21:59 | 53.28750 | -0.57327 | 27050 ft | 419 kts | 111° |
| 2026-04-30 21:59 | 53.27875 | -0.52677 | 27392 ft | 421 kts | 111° |
| 2026-04-30 21:59 | 53.26991 | -0.47996 | 27723 ft | 423 kts | 111° |
| 2026-04-30 22:00 | 53.25207 | -0.38585 | 28390 ft | 428 kts | 111° |
| 2026-04-30 22:00 | 53.23392 | -0.29068 | 29023 ft | 432 kts | 111° |
| 2026-04-30 22:00 | 53.22488 | -0.24349 | 29326 ft | 434 kts | 111° |
| 2026-04-30 22:01 | 53.21567 | -0.19553 | 29634 ft | 436 kts | 111° |
| 2026-04-30 22:01 | 53.20627 | -0.14665 | 29933 ft | 438 kts | 111° |
| 2026-04-30 22:01 | 53.19707 | -0.09886 | 30201 ft | 440 kts | 111° |
| 2026-04-30 22:01 | 53.18756 | -0.04964 | 30499 ft | 440 kts | 111° |
| 2026-04-30 22:02 | 53.17818 | -0.00120 | 30873 ft | 438 kts | 111° |
| 2026-04-30 22:02 | 53.16881 | 0.04701 | 31293 ft | 436 kts | 111° |
| 2026-04-30 22:02 | 53.15957 | 0.09436 | 31613 ft | 435 kts | 111° |
| 2026-04-30 22:02 | 53.15010 | 0.14282 | 31896 ft | 435 kts | 111° |
| 2026-04-30 22:03 | 53.14082 | 0.19015 | 32199 ft | 435 kts | 111° |
| 2026-04-30 22:03 | 53.13145 | 0.23789 | 32562 ft | 433 kts | 111° |
| 2026-04-30 22:03 | 53.12202 | 0.28583 | 32909 ft | 431 kts | 111° |
| 2026-04-30 22:03 | 53.11264 | 0.33342 | 33190 ft | 431 kts | 111° |
| 2026-04-30 22:04 | 53.10339 | 0.38027 | 33483 ft | 431 kts | 111° |
| 2026-04-30 22:04 | 53.09409 | 0.42733 | 33811 ft | 429 kts | 111° |
| 2026-04-30 22:04 | 53.07532 | 0.52163 | 34339 ft | 429 kts | 111° |
| 2026-04-30 22:05 | 53.06594 | 0.56855 | 34574 ft | 429 kts | 111° |
| 2026-04-30 22:05 | 53.05653 | 0.61557 | 34765 ft | 429 kts | 111° |
| 2026-04-30 22:05 | 53.04707 | 0.66273 | 34972 ft | 429 kts | 111° |
| 2026-04-30 22:05 | 53.03762 | 0.70973 | 35195 ft | 429 kts | 111° |
| 2026-04-30 22:06 | 53.02816 | 0.75670 | 35398 ft | 429 kts | 111° |
| 2026-04-30 22:06 | 53.00918 | 0.85059 | 35786 ft | 429 kts | 111° |
| 2026-04-30 22:06 | 52.99965 | 0.89757 | 35993 ft | 429 kts | 111° |
| 2026-04-30 22:07 | 52.99014 | 0.94435 | 36170 ft | 429 kts | 111° |
| 2026-04-30 22:07 | 52.98062 | 0.99127 | 36365 ft | 429 kts | 110° |
| 2026-04-30 22:07 | 52.97306 | 1.03939 | 36529 ft | 431 kts | 104° |
| 2026-04-30 22:07 | 52.96727 | 1.08818 | 36711 ft | 431 kts | 103° |
| 2026-04-30 22:08 | 52.96190 | 1.13718 | 36895 ft | 431 kts | 102° |
| 2026-04-30 22:08 | 52.95662 | 1.18604 | 37079 ft | 431 kts | 102° |
| 2026-04-30 22:08 | 52.95123 | 1.23508 | 37206 ft | 432 kts | 102° |
| 2026-04-30 22:08 | 52.94571 | 1.28413 | 37271 ft | 434 kts | 103° |
| 2026-04-30 22:09 | 52.93435 | 1.38236 | 37274 ft | 433 kts | 103° |
| 2026-04-30 22:09 | 52.92295 | 1.47903 | 37274 ft | 429 kts | 103° |
| 2026-04-30 22:10 | 52.91143 | 1.57580 | 37276 ft | 426 kts | 103° |
| 2026-04-30 22:10 | 52.90008 | 1.67038 | 37283 ft | 424 kts | 103° |
| 2026-04-30 22:11 | 52.88242 | 1.81630 | 37296 ft | 430 kts | 103° |
| 2026-04-30 22:12 | 52.87058 | 1.91334 | 37298 ft | 435 kts | 103° |
| 2026-04-30 22:12 | 52.85859 | 2.01103 | 37305 ft | 438 kts | 103° |
| 2026-04-30 22:13 | 52.84646 | 2.10902 | 37283 ft | 436 kts | 103° |
| 2026-04-30 22:13 | 52.83438 | 2.20596 | 37281 ft | 426 kts | 103° |
| 2026-04-30 22:14 | 52.82242 | 2.30119 | 37299 ft | 422 kts | 103° |
| 2026-04-30 22:14 | 52.81041 | 2.39625 | 37298 ft | 421 kts | 103° |
| 2026-04-30 22:15 | 52.79832 | 2.49128 | 37316 ft | 427 kts | 103° |
| 2026-04-30 22:15 | 52.78601 | 2.58723 | 37307 ft | 432 kts | 104° |
| 2026-04-30 22:16 | 52.77334 | 2.68534 | 37316 ft | 436 kts | 103° |
| 2026-04-30 22:17 | 52.74792 | 2.88038 | 37303 ft | 430 kts | 103° |
| 2026-04-30 22:17 | 52.72714 | 3.02232 | 37303 ft | 419 kts | 112° |
| 2026-04-30 22:18 | 52.69525 | 3.15545 | 37318 ft | 416 kts | 112° |
| 2026-04-30 22:19 | 52.66334 | 3.28971 | 37318 ft | 423 kts | 112° |
| 2026-04-30 22:20 | 52.63253 | 3.42701 | 37312 ft | 429 kts | 107° |
| 2026-04-30 22:20 | 52.60856 | 3.56843 | 37317 ft | 435 kts | 106° |
| 2026-04-30 22:21 | 52.59242 | 3.66400 | 37306 ft | 430 kts | 106° |
| 2026-04-30 22:21 | 52.57615 | 3.75822 | 37302 ft | 423 kts | 106° |
| 2026-04-30 22:22 | 52.56049 | 3.84784 | 37317 ft | 419 kts | 106° |
| 2026-04-30 22:22 | 52.54399 | 3.94168 | 37326 ft | 416 kts | 106° |
| 2026-04-30 22:23 | 52.52879 | 4.02771 | 37336 ft | 418 kts | 106° |
| 2026-04-30 22:23 | 52.51246 | 4.11971 | 37336 ft | 424 kts | 106° |
| 2026-04-30 22:24 | 52.49592 | 4.21244 | 37336 ft | 429 kts | 105° |
| 2026-04-30 22:24 | 52.47882 | 4.30775 | 37333 ft | 434 kts | 105° |
| 2026-04-30 22:25 | 52.46208 | 4.40063 | 37319 ft | 431 kts | 105° |
| 2026-04-30 22:25 | 52.44516 | 4.49397 | 37311 ft | 425 kts | 105° |
| 2026-04-30 22:26 | 52.41994 | 4.63230 | 37319 ft | 419 kts | 105° |
| 2026-04-30 22:27 | 52.40402 | 4.71909 | 37333 ft | 423 kts | 105° |
| 2026-04-30 22:27 | 52.37871 | 4.85625 | 37326 ft | 431 kts | 105° |
| 2026-04-30 22:28 | 52.35271 | 4.99619 | 37324 ft | 435 kts | 105° |
| 2026-04-30 22:29 | 52.32618 | 5.13192 | 37321 ft | 424 kts | 109° |
| 2026-04-30 22:29 | 52.31559 | 5.17669 | 37346 ft | 423 kts | 110° |
| 2026-04-30 22:31 | 52.24051 | 5.48682 | 37353 ft | 424 kts | 109° |
| 2026-04-30 22:32 | 52.18711 | 5.70714 | 37354 ft | 428 kts | 109° |
| 2026-04-30 22:33 | 52.13359 | 5.92604 | 37347 ft | 430 kts | 109° |
| 2026-04-30 22:35 | 52.08739 | 6.15407 | 37364 ft | 426 kts | 97° |
| 2026-04-30 22:36 | 52.06372 | 6.39031 | 37359 ft | 424 kts | 97° |
| 2026-04-30 22:37 | 52.04368 | 6.57847 | 37365 ft | 422 kts | 97° |
| 2026-04-30 22:38 | 52.02712 | 6.76618 | 37378 ft | 416 kts | 86° |
| 2026-04-30 22:38 | 52.03573 | 6.85818 | 37397 ft | 413 kts | 75° |
| 2026-04-30 22:39 | 52.04222 | 6.90349 | 37375 ft | 413 kts | 75° |
| 2026-04-30 22:40 | 52.08084 | 7.17716 | 37389 ft | 415 kts | 75° |
| 2026-04-30 22:41 | 52.11197 | 7.40655 | 37398 ft | 416 kts | 75° |
| 2026-04-30 22:43 | 52.14668 | 7.66666 | 37403 ft | 415 kts | 75° |
| 2026-04-30 22:44 | 52.17076 | 7.84999 | 37400 ft | 413 kts | 75° |
| 2026-04-30 22:45 | 52.20623 | 8.12429 | 37406 ft | 412 kts | 75° |
| 2026-04-30 22:47 | 52.24095 | 8.39816 | 37422 ft | 410 kts | 75° |
| 2026-04-30 22:48 | 52.26366 | 8.58034 | 37421 ft | 410 kts | 75° |
| 2026-04-30 22:49 | 52.29724 | 8.85425 | 37425 ft | 410 kts | 75° |
| 2026-04-30 22:51 | 52.33016 | 9.12835 | 37429 ft | 410 kts | 75° |
| 2026-04-30 22:52 | 52.34638 | 9.26553 | 37433 ft | 409 kts | 75° |
| 2026-04-30 22:53 | 52.36772 | 9.44829 | 37432 ft | 409 kts | 75° |
| 2026-04-30 22:53 | 52.38354 | 9.58545 | 37429 ft | 408 kts | 75° |
| 2026-04-30 22:55 | 52.40946 | 9.81356 | 37418 ft | 403 kts | 75° |
| 2026-04-30 22:56 | 52.42934 | 9.99144 | 37204 ft | 396 kts | 75° |
| 2026-04-30 22:56 | 52.44371 | 10.12167 | 36227 ft | 380 kts | 75° |
| 2026-04-30 22:57 | 52.45295 | 10.20606 | 35481 ft | 373 kts | 75° |
| 2026-04-30 22:57 | 52.46197 | 10.28900 | 34754 ft | 366 kts | 75° |
| 2026-04-30 22:58 | 52.47072 | 10.36995 | 34016 ft | 360 kts | 75° |
| 2026-04-30 22:59 | 52.48345 | 10.48884 | 32938 ft | 348 kts | 75° |
| 2026-04-30 22:59 | 52.49571 | 10.60444 | 31910 ft | 338 kts | 75° |